sensor_id;sensor_type;location;lat;lon;timestamp;pressure;altitude;pressure_sealevel;temperature;humidity
4410;BME280;2218;51.408;7.208;2024-03-06T00:00:52;99887.19;;;18.98;42.93
4410;BME280;2218;51.408;7.208;2024-03-06T00:03:19;99887.19;;;18.98;42.99
4410;BME280;2218;51.408;7.208;2024-03-06T00:05:48;99887.31;;;18.96;42.93
4410;BME280;2218;51.408;7.208;2024-03-06T00:08:15;99886.47;;;18.96;43.11
4410;BME280;2218;51.408;7.208;2024-03-06T00:10:42;99900.56;;;18.95;42.87
4410;BME280;2218;51.408;7.208;2024-03-06T00:13:11;99898.88;;;18.94;42.94
4410;BME280;2218;51.408;7.208;2024-03-06T00:15:37;99904.13;;;18.94;43.04
4410;BME280;2218;51.408;7.208;2024-03-06T00:18:05;99904.25;;;18.92;42.78
4410;BME280;2218;51.408;7.208;2024-03-06T00:20:32;99909.50;;;18.92;42.78
4410;BME280;2218;51.408;7.208;2024-03-06T00:23:00;99909.63;;;18.91;42.79
4410;BME280;2218;51.408;7.208;2024-03-06T00:25:27;99909.63;;;18.91;42.67
4410;BME280;2218;51.408;7.208;2024-03-06T00:27:54;99916.75;;;18.89;42.63
4410;BME280;2218;51.408;7.208;2024-03-06T00:30:21;99921.19;;;18.88;42.89
4410;BME280;2218;51.408;7.208;2024-03-06T00:32:48;99922.13;;;18.87;43.05
4410;BME280;2218;51.408;7.208;2024-03-06T00:35:15;99922.97;;;18.88;43.03
4410;BME280;2218;51.408;7.208;2024-03-06T00:37:42;99926.56;;;18.87;42.94
4410;BME280;2218;51.408;7.208;2024-03-06T00:40:13;99922.22;;;18.85;43.04
4410;BME280;2218;51.408;7.208;2024-03-06T00:42:40;99925.78;;;18.84;42.94
4410;BME280;2218;51.408;7.208;2024-03-06T00:45:08;99925.78;;;18.84;42.98
4410;BME280;2218;51.408;7.208;2024-03-06T00:47:35;99928.53;;;18.83;42.66
4410;BME280;2218;51.408;7.208;2024-03-06T00:50:03;99931.28;;;18.81;42.68
4410;BME280;2218;51.408;7.208;2024-03-06T00:52:33;99937.38;;;18.82;42.83
4410;BME280;2218;51.408;7.208;2024-03-06T00:55:00;99934.00;;;18.80;43.12
4410;BME280;2218;51.408;7.208;2024-03-06T00:57:28;99934.84;;;18.80;42.78
4410;BME280;2218;51.408;7.208;2024-03-06T00:59:56;99940.13;;;18.80;42.80
4410;BME280;2218;51.408;7.208;2024-03-06T01:02:23;99936.72;;;18.78;42.91
4410;BME280;2218;51.408;7.208;2024-03-06T01:04:50;99939.47;;;18.77;42.76
4410;BME280;2218;51.408;7.208;2024-03-06T01:07:16;99950.84;;;18.77;42.57
4410;BME280;2218;51.408;7.208;2024-03-06T01:09:44;99950.84;;;18.77;42.83
4410;BME280;2218;51.408;7.208;2024-03-06T01:12:12;99950.09;;;18.75;42.60
4410;BME280;2218;51.408;7.208;2024-03-06T01:14:40;99949.34;;;18.73;42.62
4410;BME280;2218;51.408;7.208;2024-03-06T01:17:08;99958.06;;;18.74;42.63
4410;BME280;2218;51.408;7.208;2024-03-06T01:19:35;99966.81;;;18.74;42.71
4410;BME280;2218;51.408;7.208;2024-03-06T01:22:02;99959.03;;;18.73;42.89
4410;BME280;2218;51.408;7.208;2024-03-06T01:24:29;99965.34;;;18.70;42.69
4410;BME280;2218;51.408;7.208;2024-03-06T01:26:56;99969.66;;;18.71;42.69
4410;BME280;2218;51.408;7.208;2024-03-06T01:29:23;99969.75;;;18.70;42.86
4410;BME280;2218;51.408;7.208;2024-03-06T01:31:51;99968.88;;;18.69;42.67
4410;BME280;2218;51.408;7.208;2024-03-06T01:34:18;99975.09;;;18.68;42.69
4410;BME280;2218;51.408;7.208;2024-03-06T01:36:45;99970.75;;;18.67;42.78
4410;BME280;2218;51.408;7.208;2024-03-06T01:39:12;99973.50;;;18.66;42.82
4410;BME280;2218;51.408;7.208;2024-03-06T01:41:45;99964.75;;;18.65;42.78
4410;BME280;2218;51.408;7.208;2024-03-06T01:44:12;99968.28;;;18.64;42.70
4410;BME280;2218;51.408;7.208;2024-03-06T01:46:39;99969.13;;;18.65;42.65
4410;BME280;2218;51.408;7.208;2024-03-06T01:49:09;99970.94;;;18.64;42.74
4410;BME280;2218;51.408;7.208;2024-03-06T01:51:38;99964.81;;;18.64;42.80
4410;BME280;2218;51.408;7.208;2024-03-06T01:54:06;99967.56;;;18.62;42.68
4410;BME280;2218;51.408;7.208;2024-03-06T01:56:35;99962.28;;;18.62;42.64
4410;BME280;2218;51.408;7.208;2024-03-06T01:59:04;99966.72;;;18.62;42.49
4410;BME280;2218;51.408;7.208;2024-03-06T02:01:32;99969.47;;;18.60;42.53
4410;BME280;2218;51.408;7.208;2024-03-06T02:04:00;99977.34;;;18.60;42.62
4410;BME280;2218;51.408;7.208;2024-03-06T02:06:29;99965.09;;;18.59;42.46
4410;BME280;2218;51.408;7.208;2024-03-06T02:08:57;99972.16;;;18.58;42.50
4410;BME280;2218;51.408;7.208;2024-03-06T02:11:24;99971.31;;;18.58;42.48
4410;BME280;2218;51.408;7.208;2024-03-06T02:13:50;99971.31;;;18.58;42.59
4410;BME280;2218;51.408;7.208;2024-03-06T02:16:17;99968.78;;;18.56;42.42
4410;BME280;2218;51.408;7.208;2024-03-06T02:18:54;99968.78;;;18.56;42.47
4410;BME280;2218;51.408;7.208;2024-03-06T02:21:25;99971.44;;;18.56;42.58
4410;BME280;2218;51.408;7.208;2024-03-06T02:23:52;99968.03;;;18.54;42.46
4410;BME280;2218;51.408;7.208;2024-03-06T02:26:21;99973.22;;;18.56;42.57
4410;BME280;2218;51.408;7.208;2024-03-06T02:28:49;99978.56;;;18.54;42.71
4410;BME280;2218;51.408;7.208;2024-03-06T02:31:17;99976.78;;;18.55;42.44
4410;BME280;2218;51.408;7.208;2024-03-06T02:33:47;99974.34;;;18.52;42.68
4410;BME280;2218;51.408;7.208;2024-03-06T02:36:14;99972.56;;;18.52;42.42
4410;BME280;2218;51.408;7.208;2024-03-06T02:38:44;99971.59;;;18.53;42.58
4410;BME280;2218;51.408;7.208;2024-03-06T02:41:11;99967.09;;;18.55;42.80
4410;BME280;2218;51.408;7.208;2024-03-06T02:43:41;99970.38;;;18.59;42.58
4410;BME280;2218;51.408;7.208;2024-03-06T02:46:09;99969.25;;;18.63;42.08
4410;BME280;2218;51.408;7.208;2024-03-06T02:48:36;99965.50;;;18.67;42.34
4410;BME280;2218;51.408;7.208;2024-03-06T02:51:03;99966.25;;;18.69;42.17
4410;BME280;2218;51.408;7.208;2024-03-06T02:53:30;99966.81;;;18.74;42.17
4410;BME280;2218;51.408;7.208;2024-03-06T02:55:58;99971.91;;;18.77;41.99
4410;BME280;2218;51.408;7.208;2024-03-06T02:58:26;99964.72;;;18.79;42.15
4410;BME280;2218;51.408;7.208;2024-03-06T03:00:57;99970.66;;;18.83;41.93
4410;BME280;2218;51.408;7.208;2024-03-06T03:03:24;99967.06;;;18.84;41.86
4410;BME280;2218;51.408;7.208;2024-03-06T03:05:51;99973.19;;;18.84;42.10
4410;BME280;2218;51.408;7.208;2024-03-06T03:08:18;99971.31;;;18.87;42.02
4410;BME280;2218;51.408;7.208;2024-03-06T03:10:46;99973.00;;;18.88;41.85
4410;BME280;2218;51.408;7.208;2024-03-06T03:13:15;99982.59;;;18.89;41.82
4410;BME280;2218;51.408;7.208;2024-03-06T03:15:42;99974.69;;;18.89;41.84
4410;BME280;2218;51.408;7.208;2024-03-06T03:18:09;99979.94;;;18.89;41.86
4410;BME280;2218;51.408;7.208;2024-03-06T03:20:36;99975.53;;;18.89;42.04
4410;BME280;2218;51.408;7.208;2024-03-06T03:23:03;99979.03;;;18.90;41.96
4410;BME280;2218;51.408;7.208;2024-03-06T03:25:31;99986.94;;;18.90;41.90
4410;BME280;2218;51.408;7.208;2024-03-06T03:27:59;99983.44;;;18.89;41.67
4410;BME280;2218;51.408;7.208;2024-03-06T03:30:27;99986.06;;;18.89;41.61
4410;BME280;2218;51.408;7.208;2024-03-06T03:32:54;99986.94;;;18.90;41.93
4410;BME280;2218;51.408;7.208;2024-03-06T03:35:21;99985.22;;;18.89;41.85
4410;BME280;2218;51.408;7.208;2024-03-06T03:37:50;99988.81;;;18.88;41.64
4410;BME280;2218;51.408;7.208;2024-03-06T03:40:18;99985.22;;;18.89;41.55
4410;BME280;2218;51.408;7.208;2024-03-06T03:42:45;99992.38;;;18.87;41.90
4410;BME280;2218;51.408;7.208;2024-03-06T03:45:12;99992.38;;;18.87;41.85
4410;BME280;2218;51.408;7.208;2024-03-06T03:47:40;99992.38;;;18.87;41.57
4410;BME280;2218;51.408;7.208;2024-03-06T03:50:09;99997.66;;;18.87;41.71
4410;BME280;2218;51.408;7.208;2024-03-06T03:52:36;99995.03;;;18.87;41.51
4410;BME280;2218;51.408;7.208;2024-03-06T03:55:07;100007.34;;;18.86;41.60
4410;BME280;2218;51.408;7.208;2024-03-06T03:57:34;100002.91;;;18.87;41.68
4410;BME280;2218;51.408;7.208;2024-03-06T04:00:02;100009.03;;;18.87;41.56
4410;BME280;2218;51.408;7.208;2024-03-06T04:02:37;100013.44;;;18.87;41.79
4410;BME280;2218;51.408;7.208;2024-03-06T04:05:07;100019.66;;;18.85;41.75
4410;BME280;2218;51.408;7.208;2024-03-06T04:07:35;100023.16;;;18.86;41.73
4410;BME280;2218;51.408;7.208;2024-03-06T04:10:04;100019.66;;;18.85;41.62
4410;BME280;2218;51.408;7.208;2024-03-06T04:12:32;100022.31;;;18.85;41.63
4410;BME280;2218;51.408;7.208;2024-03-06T04:14:59;100017.03;;;18.85;41.45
4410;BME280;2218;51.408;7.208;2024-03-06T04:17:26;100019.66;;;18.85;41.77
4410;BME280;2218;51.408;7.208;2024-03-06T04:19:53;100024.09;;;18.85;41.44
4410;BME280;2218;51.408;7.208;2024-03-06T04:22:22;100028.47;;;18.84;41.74
4410;BME280;2218;51.408;7.208;2024-03-06T04:24:49;100031.13;;;18.84;41.68
4410;BME280;2218;51.408;7.208;2024-03-06T04:27:16;100039.91;;;18.85;41.45
4410;BME280;2218;51.408;7.208;2024-03-06T04:29:43;100034.69;;;18.83;42.07
4410;BME280;2218;51.408;7.208;2024-03-06T04:32:10;100035.53;;;18.84;41.58
4410;BME280;2218;51.408;7.208;2024-03-06T04:34:37;100045.22;;;18.83;41.71
4410;BME280;2218;51.408;7.208;2024-03-06T04:37:04;100046.06;;;18.84;41.67
4410;BME280;2218;51.408;7.208;2024-03-06T04:39:33;100050.50;;;18.83;41.63
4410;BME280;2218;51.408;7.208;2024-03-06T04:42:00;100045.22;;;18.83;41.54
4410;BME280;2218;51.408;7.208;2024-03-06T04:44:28;100048.81;;;18.82;41.58
4410;BME280;2218;51.408;7.208;2024-03-06T04:46:56;100054.06;;;18.82;41.57
4410;BME280;2218;51.408;7.208;2024-03-06T04:49:22;100056.72;;;18.82;41.57
4410;BME280;2218;51.408;7.208;2024-03-06T04:51:49;100061.97;;;18.82;41.44
4410;BME280;2218;51.408;7.208;2024-03-06T04:54:16;100067.25;;;18.82;41.64
4410;BME280;2218;51.408;7.208;2024-03-06T04:56:45;100076.09;;;18.81;41.53
4410;BME280;2218;51.408;7.208;2024-03-06T04:59:12;100069.03;;;18.82;41.48
4410;BME280;2218;51.408;7.208;2024-03-06T05:01:39;100085.69;;;18.82;41.28
4410;BME280;2218;51.408;7.208;2024-03-06T05:04:06;100084.84;;;18.82;41.44
4410;BME280;2218;51.408;7.208;2024-03-06T05:06:33;100082.31;;;18.80;41.57
4410;BME280;2218;51.408;7.208;2024-03-06T05:09:01;100084.94;;;18.80;41.26
4410;BME280;2218;51.408;7.208;2024-03-06T05:11:28;100087.56;;;18.80;41.46
4410;BME280;2218;51.408;7.208;2024-03-06T05:13:58;100092.84;;;18.80;41.53
4410;BME280;2218;51.408;7.208;2024-03-06T05:16:25;100092.75;;;18.82;41.31
4410;BME280;2218;51.408;7.208;2024-03-06T05:18:52;100090.00;;;18.83;41.11
4410;BME280;2218;51.408;7.208;2024-03-06T05:21:20;100092.56;;;18.85;41.38
4410;BME280;2218;51.408;7.208;2024-03-06T05:23:48;100100.34;;;18.87;41.52
4410;BME280;2218;51.408;7.208;2024-03-06T05:26:15;100102.16;;;18.86;41.12
4410;BME280;2218;51.408;7.208;2024-03-06T05:28:42;100103.00;;;18.87;41.19
4410;BME280;2218;51.408;7.208;2024-03-06T05:31:18;100109.00;;;18.89;41.25
4410;BME280;2218;51.408;7.208;2024-03-06T05:33:47;100115.09;;;18.89;41.32
4410;BME280;2218;51.408;7.208;2024-03-06T05:36:15;100106.38;;;18.89;41.45
4410;BME280;2218;51.408;7.208;2024-03-06T05:38:43;100110.78;;;18.88;41.24
4410;BME280;2218;51.408;7.208;2024-03-06T05:41:10;100113.34;;;18.90;41.43
4410;BME280;2218;51.408;7.208;2024-03-06T05:43:37;100121.16;;;18.91;41.19
4410;BME280;2218;51.408;7.208;2024-03-06T05:46:04;100107.13;;;18.91;41.17
4410;BME280;2218;51.408;7.208;2024-03-06T05:48:32;100110.59;;;18.91;41.27
4410;BME280;2218;51.408;7.208;2024-03-06T05:50:59;100108.81;;;18.92;41.18
4410;BME280;2218;51.408;7.208;2024-03-06T05:53:26;100108.72;;;18.93;41.16
4410;BME280;2218;51.408;7.208;2024-03-06T05:55:53;100114.81;;;18.94;41.31
4410;BME280;2218;51.408;7.208;2024-03-06T05:58:20;100120.09;;;18.94;41.41
4410;BME280;2218;51.408;7.208;2024-03-06T06:00:48;100133.25;;;18.94;41.62
4410;BME280;2218;51.408;7.208;2024-03-06T06:03:15;100136.75;;;18.94;41.46
4410;BME280;2218;51.408;7.208;2024-03-06T06:05:43;100137.63;;;18.95;41.29
4410;BME280;2218;51.408;7.208;2024-03-06T06:08:10;100151.63;;;18.95;41.28
4410;BME280;2218;51.408;7.208;2024-03-06T06:10:37;100149.00;;;18.95;41.24
4410;BME280;2218;51.408;7.208;2024-03-06T06:13:05;100145.41;;;18.96;41.55
4410;BME280;2218;51.408;7.208;2024-03-06T06:15:32;100146.25;;;18.97;41.39
4410;BME280;2218;51.408;7.208;2024-03-06T06:17:59;100148.88;;;18.97;41.25
4410;BME280;2218;51.408;7.208;2024-03-06T06:20:26;100148.88;;;18.97;41.26
4410;BME280;2218;51.408;7.208;2024-03-06T06:22:54;100151.53;;;18.97;41.18
4410;BME280;2218;51.408;7.208;2024-03-06T06:25:21;100156.69;;;18.98;41.25
4410;BME280;2218;51.408;7.208;2024-03-06T06:27:48;100160.28;;;18.97;41.37
4410;BME280;2218;51.408;7.208;2024-03-06T06:30:16;100168.06;;;18.99;41.32
4410;BME280;2218;51.408;7.208;2024-03-06T06:32:43;100168.06;;;18.99;41.35
4410;BME280;2218;51.408;7.208;2024-03-06T06:35:11;100173.34;;;18.99;41.10
4410;BME280;2218;51.408;7.208;2024-03-06T06:37:39;100169.78;;;19.00;41.04
4410;BME280;2218;51.408;7.208;2024-03-06T06:40:09;100175.91;;;19.00;41.25
4410;BME280;2218;51.408;7.208;2024-03-06T06:42:44;100179.38;;;19.01;41.17
4410;BME280;2218;51.408;7.208;2024-03-06T06:45:13;100188.97;;;19.02;41.11
4410;BME280;2218;51.408;7.208;2024-03-06T06:47:41;100189.72;;;19.04;41.10
4410;BME280;2218;51.408;7.208;2024-03-06T06:50:08;100192.34;;;19.04;41.12
4410;BME280;2218;51.408;7.208;2024-03-06T06:52:37;100194.06;;;19.05;41.19
4410;BME280;2218;51.408;7.208;2024-03-06T06:55:07;100200.06;;;19.07;40.86
4410;BME280;2218;51.408;7.208;2024-03-06T06:57:35;100198.19;;;19.09;41.09
4410;BME280;2218;51.408;7.208;2024-03-06T07:00:05;100202.16;;;19.16;40.71
4410;BME280;2218;51.408;7.208;2024-03-06T07:02:36;100201.88;;;19.21;40.42
4410;BME280;2218;51.408;7.208;2024-03-06T07:05:05;100199.81;;;19.26;40.53
4410;BME280;2218;51.408;7.208;2024-03-06T07:07:32;100196.88;;;19.30;40.60
4410;BME280;2218;51.408;7.208;2024-03-06T07:09:59;100200.25;;;19.32;40.28
4410;BME280;2218;51.408;7.208;2024-03-06T07:12:28;100195.94;;;19.31;40.29
4410;BME280;2218;51.408;7.208;2024-03-06T07:14:54;100204.59;;;19.33;39.78
4410;BME280;2218;51.408;7.208;2024-03-06T07:17:21;100209.69;;;19.36;39.95
4410;BME280;2218;51.408;7.208;2024-03-06T07:19:48;100215.50;;;19.42;40.06
4410;BME280;2218;51.408;7.208;2024-03-06T07:22:16;100216.19;;;19.45;39.89
4410;BME280;2218;51.408;7.208;2024-03-06T07:24:44;100221.44;;;19.45;40.15
4410;BME280;2218;51.408;7.208;2024-03-06T07:27:11;100218.72;;;19.47;39.99
4410;BME280;2218;51.408;7.208;2024-03-06T07:29:39;100206.25;;;19.49;40.17
4410;BME280;2218;51.408;7.208;2024-03-06T07:32:06;100221.06;;;19.51;40.27
4410;BME280;2218;51.408;7.208;2024-03-06T07:34:34;100214.84;;;19.52;40.41
4410;BME280;2218;51.408;7.208;2024-03-06T07:37:01;100228.88;;;19.53;40.84
4410;BME280;2218;51.408;7.208;2024-03-06T07:39:28;100234.81;;;19.56;40.71
4410;BME280;2218;51.408;7.208;2024-03-06T07:41:57;100246.88;;;19.60;40.96
4410;BME280;2218;51.408;7.208;2024-03-06T07:44:24;100250.09;;;19.66;40.48
4410;BME280;2218;51.408;7.208;2024-03-06T07:46:52;100243.41;;;19.74;39.28
4410;BME280;2218;51.408;7.208;2024-03-06T07:49:19;100238.75;;;19.78;37.66
4410;BME280;2218;51.408;7.208;2024-03-06T07:51:47;100233.31;;;19.81;37.18
4410;BME280;2218;51.408;7.208;2024-03-06T07:54:14;100238.56;;;19.81;37.02
4410;BME280;2218;51.408;7.208;2024-03-06T07:56:41;100248.91;;;19.84;36.83
4410;BME280;2218;51.408;7.208;2024-03-06T07:59:08;100238.34;;;19.84;36.55
4410;BME280;2218;51.408;7.208;2024-03-06T08:01:39;100245.81;;;19.92;36.63
4410;BME280;2218;51.408;7.208;2024-03-06T08:04:07;100255.13;;;19.11;38.14
4410;BME280;2218;51.408;7.208;2024-03-06T08:06:34;100250.16;;;19.35;38.09
4410;BME280;2218;51.408;7.208;2024-03-06T08:09:03;100253.53;;;19.52;39.27
4410;BME280;2218;51.408;7.208;2024-03-06T08:11:30;100261.88;;;19.60;38.71
4410;BME280;2218;51.408;7.208;2024-03-06T08:13:58;100261.88;;;19.60;38.51
4410;BME280;2218;51.408;7.208;2024-03-06T08:16:25;100264.28;;;19.63;38.95
4410;BME280;2218;51.408;7.208;2024-03-06T08:18:52;100269.38;;;19.66;38.47
4410;BME280;2218;51.408;7.208;2024-03-06T08:21:20;100269.22;;;19.69;38.79
4410;BME280;2218;51.408;7.208;2024-03-06T08:23:48;100272.59;;;19.71;39.24
4410;BME280;2218;51.408;7.208;2024-03-06T08:26:15;100270.69;;;19.73;38.63
4410;BME280;2218;51.408;7.208;2024-03-06T08:28:42;100276.75;;;19.75;39.08
4410;BME280;2218;51.408;7.208;2024-03-06T08:31:09;100280.00;;;19.79;38.46
4410;BME280;2218;51.408;7.208;2024-03-06T08:33:37;100287.06;;;19.78;38.92
4410;BME280;2218;51.408;7.208;2024-03-06T08:36:05;100296.59;;;19.81;39.02
4410;BME280;2218;51.408;7.208;2024-03-06T08:38:34;100290.47;;;19.80;39.57
4410;BME280;2218;51.408;7.208;2024-03-06T08:41:01;100299.41;;;19.78;39.78
4410;BME280;2218;51.408;7.208;2024-03-06T08:43:27;100298.41;;;19.80;39.54
4410;BME280;2218;51.408;7.208;2024-03-06T08:45:54;100299.03;;;19.84;38.92
4410;BME280;2218;51.408;7.208;2024-03-06T08:48:21;100305.75;;;19.90;39.13
4410;BME280;2218;51.408;7.208;2024-03-06T08:50:49;100300.25;;;19.93;39.02
4410;BME280;2218;51.408;7.208;2024-03-06T08:53:17;100309.84;;;19.94;39.36
4410;BME280;2218;51.408;7.208;2024-03-06T08:55:45;100315.78;;;19.97;39.02
4410;BME280;2218;51.408;7.208;2024-03-06T08:58:13;100318.16;;;20.02;38.90
4410;BME280;2218;51.408;7.208;2024-03-06T09:00:40;100315.31;;;20.05;38.78
4410;BME280;2218;51.408;7.208;2024-03-06T09:03:07;100316.91;;;20.07;39.11
4410;BME280;2218;51.408;7.208;2024-03-06T09:05:34;100326.88;;;20.17;38.81
4410;BME280;2218;51.408;7.208;2024-03-06T09:08:01;100325.09;;;20.17;38.87
4410;BME280;2218;51.408;7.208;2024-03-06T09:10:28;100318.97;;;20.17;38.96
4410;BME280;2218;51.408;7.208;2024-03-06T09:12:56;100319.81;;;20.17;39.03
4410;BME280;2218;51.408;7.208;2024-03-06T09:15:24;100323.22;;;20.19;38.71
4410;BME280;2218;51.408;7.208;2024-03-06T09:17:51;100324.91;;;20.20;38.89
4410;BME280;2218;51.408;7.208;2024-03-06T09:20:18;100323.97;;;20.21;38.95
4410;BME280;2218;51.408;7.208;2024-03-06T09:22:45;100327.34;;;20.23;38.85
4410;BME280;2218;51.408;7.208;2024-03-06T09:25:12;100329.97;;;20.23;38.88
4410;BME280;2218;51.408;7.208;2024-03-06T09:27:40;100336.22;;;20.22;38.92
4410;BME280;2218;51.408;7.208;2024-03-06T09:30:10;100336.97;;;20.24;39.30
4410;BME280;2218;51.408;7.208;2024-03-06T09:32:39;100337.53;;;20.29;38.96
4410;BME280;2218;51.408;7.208;2024-03-06T09:35:08;100342.16;;;20.26;39.05
4410;BME280;2218;51.408;7.208;2024-03-06T09:37:34;100346.47;;;20.27;39.06
4410;BME280;2218;51.408;7.208;2024-03-06T09:40:02;100343.00;;;20.26;39.05
4410;BME280;2218;51.408;7.208;2024-03-06T09:42:29;100345.63;;;20.26;39.02
4410;BME280;2218;51.408;7.208;2024-03-06T09:44:56;100344.59;;;20.29;39.28
4410;BME280;2218;51.408;7.208;2024-03-06T09:47:28;100349.00;;;20.28;39.08
4410;BME280;2218;51.408;7.208;2024-03-06T09:50:00;100352.31;;;20.18;43.08
4410;BME280;2218;51.408;7.208;2024-03-06T09:52:30;100347.34;;;20.13;43.41
4410;BME280;2218;51.408;7.208;2024-03-06T09:54:58;100353.56;;;20.12;43.28
4410;BME280;2218;51.408;7.208;2024-03-06T09:57:26;100355.47;;;20.10;43.42
4410;BME280;2218;51.408;7.208;2024-03-06T09:59:53;100350.25;;;20.08;43.21
4410;BME280;2218;51.408;7.208;2024-03-06T10:02:39;100357.34;;;20.08;43.09
4410;BME280;2218;51.408;7.208;2024-03-06T10:05:21;100358.28;;;20.07;42.95
4410;BME280;2218;51.408;7.208;2024-03-06T10:07:49;100359.22;;;20.06;42.66
4410;BME280;2218;51.408;7.208;2024-03-06T10:10:17;100366.31;;;20.05;41.71
4410;BME280;2218;51.408;7.208;2024-03-06T10:12:45;100367.72;;;20.11;39.76
4410;BME280;2218;51.408;7.208;2024-03-06T10:15:14;100367.13;;;20.20;39.13
4410;BME280;2218;51.408;7.208;2024-03-06T10:17:42;100361.03;;;20.20;38.87
4410;BME280;2218;51.408;7.208;2024-03-06T10:20:20;100358.28;;;20.21;38.46
4410;BME280;2218;51.408;7.208;2024-03-06T10:22:50;100365.13;;;20.24;38.35
4410;BME280;2218;51.408;7.208;2024-03-06T10:25:22;100365.06;;;20.25;38.06
4410;BME280;2218;51.408;7.208;2024-03-06T10:28:04;100366.75;;;20.26;38.11
4410;BME280;2218;51.408;7.208;2024-03-06T10:30:32;100370.13;;;20.28;37.93
4410;BME280;2218;51.408;7.208;2024-03-06T10:33:03;100389.75;;;20.24;38.75
4410;BME280;2218;51.408;7.208;2024-03-06T10:35:31;100378.53;;;20.21;38.84
4410;BME280;2218;51.408;7.208;2024-03-06T10:38:00;100388.25;;;20.20;38.88
4410;BME280;2218;51.408;7.208;2024-03-06T10:40:32;100384.84;;;20.18;39.01
4410;BME280;2218;51.408;7.208;2024-03-06T10:43:00;100388.44;;;20.17;38.55
4410;BME280;2218;51.408;7.208;2024-03-06T10:45:40;100385.78;;;20.17;38.64
4410;BME280;2218;51.408;7.208;2024-03-06T10:48:12;100384.84;;;20.18;39.10
4410;BME280;2218;51.408;7.208;2024-03-06T10:50:41;100391.06;;;20.17;38.74
4410;BME280;2218;51.408;7.208;2024-03-06T10:53:11;100387.59;;;20.17;38.87
4410;BME280;2218;51.408;7.208;2024-03-06T10:55:39;100391.91;;;20.18;38.83
4410;BME280;2218;51.408;7.208;2024-03-06T10:58:08;100387.59;;;20.17;38.70
4410;BME280;2218;51.408;7.208;2024-03-06T11:00:37;100391.06;;;20.17;38.92
4410;BME280;2218;51.408;7.208;2024-03-06T11:03:06;100383.16;;;20.17;38.96
4410;BME280;2218;51.408;7.208;2024-03-06T11:05:36;100393.72;;;20.17;38.82
4410;BME280;2218;51.408;7.208;2024-03-06T11:08:07;100393.72;;;20.17;38.94
4410;BME280;2218;51.408;7.208;2024-03-06T11:10:36;100393.72;;;20.17;39.10
4410;BME280;2218;51.408;7.208;2024-03-06T11:13:09;100394.56;;;20.18;39.04
4410;BME280;2218;51.408;7.208;2024-03-06T11:15:47;100391.91;;;20.18;38.99
4410;BME280;2218;51.408;7.208;2024-03-06T11:18:43;100393.72;;;20.17;39.08
4410;BME280;2218;51.408;7.208;2024-03-06T11:21:33;100392.75;;;20.18;39.14
4410;BME280;2218;51.408;7.208;2024-03-06T11:24:18;100399.00;;;20.17;39.07
4410;BME280;2218;51.408;7.208;2024-03-06T11:26:48;100401.63;;;20.17;39.12
4410;BME280;2218;51.408;7.208;2024-03-06T11:29:17;100397.19;;;20.18;39.18
4410;BME280;2218;51.408;7.208;2024-03-06T11:32:12;100399.00;;;20.17;39.22
4410;BME280;2218;51.408;7.208;2024-03-06T11:34:39;100403.31;;;20.18;39.23
4410;BME280;2218;51.408;7.208;2024-03-06T11:37:08;100395.41;;;20.18;39.13
4410;BME280;2218;51.408;7.208;2024-03-06T11:39:39;100399.84;;;20.18;39.22
4410;BME280;2218;51.408;7.208;2024-03-06T11:42:07;100400.69;;;20.18;39.33
4410;BME280;2218;51.408;7.208;2024-03-06T11:44:35;100400.69;;;20.18;39.25
4410;BME280;2218;51.408;7.208;2024-03-06T11:47:04;100397.13;;;20.19;39.28
4410;BME280;2218;51.408;7.208;2024-03-06T11:49:33;100395.41;;;20.18;39.28
4410;BME280;2218;51.408;7.208;2024-03-06T11:52:02;100397.13;;;20.19;39.73
4410;BME280;2218;51.408;7.208;2024-03-06T11:54:32;100394.38;;;20.21;39.58
4410;BME280;2218;51.408;7.208;2024-03-06T11:57:02;100396.06;;;20.22;39.11
4410;BME280;2218;51.408;7.208;2024-03-06T11:59:31;100397.75;;;20.23;39.50
4410;BME280;2218;51.408;7.208;2024-03-06T12:02:01;100399.56;;;20.22;39.26
4410;BME280;2218;51.408;7.208;2024-03-06T12:04:29;100401.34;;;20.22;39.53
4410;BME280;2218;51.408;7.208;2024-03-06T12:06:57;100399.56;;;20.22;39.73
4410;BME280;2218;51.408;7.208;2024-03-06T12:09:25;100400.50;;;20.21;39.50
4410;BME280;2218;51.408;7.208;2024-03-06T12:11:56;100405.78;;;20.21;39.80
4410;BME280;2218;51.408;7.208;2024-03-06T12:14:23;100401.34;;;20.22;39.80
4410;BME280;2218;51.408;7.208;2024-03-06T12:16:57;100400.50;;;20.21;39.69
4410;BME280;2218;51.408;7.208;2024-03-06T12:19:26;100410.09;;;20.22;39.72
4410;BME280;2218;51.408;7.208;2024-03-06T12:21:55;100406.63;;;20.22;39.89
4410;BME280;2218;51.408;7.208;2024-03-06T12:24:26;100405.78;;;20.21;39.76
4410;BME280;2218;51.408;7.208;2024-03-06T12:27:01;100412.75;;;20.22;39.81
4410;BME280;2218;51.408;7.208;2024-03-06T12:29:30;100409.16;;;20.23;39.57
4410;BME280;2218;51.408;7.208;2024-03-06T12:31:58;100410.00;;;20.24;39.88
4410;BME280;2218;51.408;7.208;2024-03-06T12:34:25;100410.88;;;20.24;39.74
4410;BME280;2218;51.408;7.208;2024-03-06T12:36:52;100410.88;;;20.24;39.75
4410;BME280;2218;51.408;7.208;2024-03-06T12:39:19;100413.41;;;20.26;39.57
4410;BME280;2218;51.408;7.208;2024-03-06T12:41:49;100412.56;;;20.25;39.85
4410;BME280;2218;51.408;7.208;2024-03-06T12:44:19;100408.97;;;20.26;39.48
4410;BME280;2218;51.408;7.208;2024-03-06T12:46:46;100418.59;;;20.27;39.50
4410;BME280;2218;51.408;7.208;2024-03-06T12:49:14;100415.94;;;20.27;39.78
4410;BME280;2218;51.408;7.208;2024-03-06T12:51:41;100412.34;;;20.28;39.67
4410;BME280;2218;51.408;7.208;2024-03-06T12:54:07;100415.00;;;20.28;39.64
4410;BME280;2218;51.408;7.208;2024-03-06T12:56:35;100414.94;;;20.30;39.70
4410;BME280;2218;51.408;7.208;2024-03-06T12:59:02;100409.66;;;20.30;39.61
4410;BME280;2218;51.408;7.208;2024-03-06T13:01:32;100410.50;;;20.30;39.15
4410;BME280;2218;51.408;7.208;2024-03-06T13:03:59;100403.41;;;20.31;39.85
4410;BME280;2218;51.408;7.208;2024-03-06T13:06:26;100404.25;;;20.31;39.70
4410;BME280;2218;51.408;7.208;2024-03-06T13:08:54;100398.03;;;20.32;39.75
4410;BME280;2218;51.408;7.208;2024-03-06T13:11:21;100393.59;;;20.33;40.00
4410;BME280;2218;51.408;7.208;2024-03-06T13:13:48;100395.31;;;20.34;39.97
4410;BME280;2218;51.408;7.208;2024-03-06T13:16:15;100396.16;;;20.34;39.77
4410;BME280;2218;51.408;7.208;2024-03-06T13:18:43;100399.72;;;20.33;39.87
4410;BME280;2218;51.408;7.208;2024-03-06T13:21:10;100404.94;;;20.35;39.80